Ocean King — CZ2591 — position and weather

sailwx.info

Track history (hours):
 
Tides and Currents Weather Stations Pressure Air Temp Water Temp Dewpoint Dewpoint Depression Visibility Wind Speed Wind Dir Waves Ship Positions

Ocean King

Last reported at 2017-Oct-16 19:51 UTC. Time now 2017-Oct-18 09:34 UTC.
Position N 48°56' W 125°32'.

Length 29 m; draft 4 m.

Type: Fishing. MMSI: 316003514.

Date/timePositionNaut miles runAvg speedWind from/ knotsBaromVisibWave heightAir tempDewpointWater temp
2017-Oct-16 19:51N 48°56' W 125°32'0 0.0
2017-Oct-16 19:31N 48°56' W 125°32'0 0.0
2017-Oct-16 19:00N 48°56' W 125°32'0 0.0
2017-Oct-16 18:31N 48°56' W 125°32'0 0.0
2017-Oct-16 18:00N 48°56' W 125°32'0 0.0
2017-Oct-16 17:31N 48°56' W 125°32'0 0.0
2017-Oct-16 17:00N 48°56' W 125°32'0 0.0
2017-Oct-16 16:30N 48°56' W 125°32'0 0.0
2017-Oct-16 16:00N 48°56' W 125°32'0 0.2
2017-Oct-16 15:30N 48°56' W 125°32'0 0.0
2017-Oct-16 15:01N 48°56' W 125°32'0 0.0
2017-Oct-16 14:00N 48°56' W 125°32'0 0.0
2017-Oct-16 13:30N 48°56' W 125°32'0 0.0
2017-Oct-16 13:00N 48°56' W 125°32'0 0.0
2017-Oct-16 12:31N 48°56' W 125°32'0 0.0
2017-Oct-16 12:01N 48°56' W 125°32'0 0.0
2017-Oct-16 11:30N 48°56' W 125°32'0 0.0
2017-Oct-16 11:01N 48°56' W 125°32'0 0.0
2017-Oct-16 10:30N 48°56' W 125°32'0 0.0
2017-Oct-16 10:01N 48°56' W 125°32'0 0.0
2017-Oct-16 09:31N 48°56' W 125°32'1 2.3
2017-Oct-16 09:01N 48°55' W 125°31'4 7.4
2017-Oct-16 08:30N 48°55' W 125°37'4 8.1
2017-Oct-16 08:00N 48°55' W 125°43'4 8.3
2017-Oct-16 07:31N 48°55' W 125°49'4 8.6
2017-Oct-16 07:00N 48°55' W 125°56'4 8.7
2017-Oct-16 06:30N 48°55' W 126°02'4 8.6
2017-Oct-16 06:00N 48°55' W 126°09'4 8.7
2017-Oct-16 05:30N 48°55' W 126°16'5 8.7
2017-Oct-16 04:53N 48°55' W 126°24'3 8.1
2017-Oct-16 04:29N 48°55' W 126°29'3 3.5
2017-Oct-16 03:37N 48°55' W 126°33'1 2.7
2017-Oct-16 03:08N 48°57' W 126°33'0 1.4
2017-Oct-16 02:49N 48°57' W 126°33'1 0.7
2017-Oct-16 01:17N 48°56' W 126°33'1 1.9
2017-Oct-16 00:59N 48°55' W 126°32'1 2.2
2017-Oct-16 00:29N 48°54' W 126°32'1 2.1
2017-Oct-16 00:00N 48°53' W 126°32'1 2.2
2017-Oct-15 23:29N 48°52' W 126°32'2 2.3
2017-Oct-15 22:48N 48°51' W 126°33'1 2.4
2017-Oct-15 22:30N 48°50' W 126°33'1 2.7
2017-Oct-15 22:00N 48°49' W 126°33'1 1.7
2017-Oct-15 21:24N 48°50' W 126°33'1 2.4
2017-Oct-15 20:59N 48°51' W 126°33'1 2.3
2017-Oct-15 20:29N 48°52' W 126°34'1 1.4
2017-Oct-15 20:00N 48°52' W 126°33'2 2.3
2017-Oct-15 19:18N 48°51' W 126°34'1 2.3
2017-Oct-15 18:59N 48°50' W 126°34'1 2.4
2017-Oct-15 18:28N 48°49' W 126°32'1 2.4
2017-Oct-15 18:01N 48°48' W 126°31'1 1.6
2017-Oct-15 17:30N 48°47' W 126°31'4 7.8
2017-Oct-15 16:58N 48°51' W 126°33'2 3.4
2017-Oct-15 16:20N 48°49' W 126°33'3 8.1
2017-Oct-15 15:58N 48°48' W 126°29'4 8.2
2017-Oct-15 15:30N 48°47' W 126°23'4 8.9
2017-Oct-15 15:01N 48°45' W 126°18'6 5.5
2017-Oct-15 14:01N 48°45' W 126°09'4 7.1
2017-Oct-15 13:31N 48°47' W 126°04'3 6.9
2017-Oct-15 13:01N 48°48' W 125°60'4 7.2
2017-Oct-15 12:31N 48°49' W 125°55'4 7.3
2017-Oct-15 12:01N 48°51' W 125°49'4 7.4
2017-Oct-15 11:30N 48°52' W 125°44'4 7.3
2017-Oct-15 11:01N 48°53' W 125°39'4 7.3
2017-Oct-15 10:31N 48°55' W 125°34'2 3.9
2017-Oct-15 10:01N 48°56' W 125°32'0 0.2
2017-Oct-15 09:31N 48°56' W 125°32'0 0.0
2017-Oct-15 09:01N 48°56' W 125°32'0 0.0
2017-Oct-15 08:30N 48°56' W 125°32'0 0.0
2017-Oct-15 08:01N 48°56' W 125°32'0 0.0
2017-Oct-15 07:31N 48°56' W 125°32'0 0.0
2017-Oct-15 07:01N 48°56' W 125°32'0 0.0
2017-Oct-15 06:30N 48°56' W 125°32'0 0.0
2017-Oct-15 06:01N 48°56' W 125°32'0 0.0
2017-Oct-15 05:31N 48°56' W 125°32'0 0.0
2017-Oct-15 05:01N 48°56' W 125°32'1 3.0
2017-Oct-15 04:31N 48°55' W 125°33'4 7.8
2017-Oct-15 04:01N 48°55' W 125°38'3 6.8
2017-Oct-15 03:31N 48°55' W 125°44'3 6.2
2017-Oct-15 03:01N 48°55' W 125°48'3 6.0
2017-Oct-15 02:31N 48°55' W 125°53'3 6.2
2017-Oct-15 02:00N 48°55' W 125°58'3 6.5
2017-Oct-15 01:28N 48°54' W 126°03'3 7.1
2017-Oct-15 01:01N 48°54' W 126°08'4 7.4
2017-Oct-15 00:30N 48°52' W 126°13'3 6.7
2017-Oct-15 00:00N 48°52' W 126°18'3 6.8
2017-Oct-14 23:31N 48°52' W 126°23'2 4.0
2017-Oct-14 22:59N 48°51' W 126°26'1 1.8
2017-Oct-14 22:30N 48°50' W 126°26'1 1.3
2017-Oct-14 22:00N 48°50' W 126°27'1 1.2
2017-Oct-14 21:30N 48°49' W 126°27'1 1.4
2017-Oct-14 21:00N 48°48' W 126°27'1 1.4
2017-Oct-14 20:30N 48°48' W 126°28'0 0.9
2017-Oct-14 19:58N 48°48' W 126°27'1 2.3
2017-Oct-14 19:28N 48°47' W 126°25'1 2.6
2017-Oct-14 18:59N 48°47' W 126°23'1 2.6
2017-Oct-14 18:30N 48°47' W 126°22'1 2.6
2017-Oct-14 18:01N 48°46' W 126°20'1 1.2
2017-Oct-14 17:30N 48°46' W 126°19'3 5.7
2017-Oct-14 16:59N 48°47' W 126°23'4 6.9
2017-Oct-14 16:27N 48°47' W 126°29'4 7.3
2017-Oct-14 15:57N 48°50' W 126°32'3 7.1
2017-Oct-14 15:30N 48°53' W 126°32'1 1.1
2017-Oct-14 14:55N 48°53' W 126°33'2 4.7
2017-Oct-14 14:30N 48°52' W 126°30'4 7.7
2017-Oct-14 14:00N 48°52' W 126°24'4 7.6
2017-Oct-14 13:31N 48°52' W 126°19'4 7.6
2017-Oct-14 13:00N 48°52' W 126°13'4 7.5
2017-Oct-14 12:30N 48°53' W 126°07'4 7.5
2017-Oct-14 12:01N 48°53' W 126°02'4 7.8
2017-Oct-14 11:31N 48°54' W 125°56'4 7.7
2017-Oct-14 11:01N 48°54' W 125°50'4 7.7
2017-Oct-14 10:30N 48°55' W 125°44'4 7.8
2017-Oct-14 10:01N 48°55' W 125°38'4 8.1
2017-Oct-14 09:31N 48°55' W 125°32'1 2.7
2017-Oct-14 09:01N 48°56' W 125°32'0 0.0
2017-Oct-14 08:31N 48°56' W 125°32'0 0.0
2017-Oct-14 08:01N 48°56' W 125°32'0 0.0
2017-Oct-14 07:31N 48°56' W 125°32'0 0.0
2017-Oct-14 07:01N 48°56' W 125°32'0 0.0
2017-Oct-14 06:31N 48°56' W 125°32'0 0.0
2017-Oct-14 06:01N 48°56' W 125°32'0 0.0
2017-Oct-14 05:30N 48°56' W 125°32'0 0.0
2017-Oct-14 05:01N 48°56' W 125°32'0 0.0
2017-Oct-14 04:30N 48°56' W 125°32'  
Track history (hours):
 
Tides and Currents Weather Stations Pressure Air Temp Water Temp Dewpoint Dewpoint Depression Visibility Wind Speed Wind Dir Waves Ship Positions

Ocean King

Last reported at 2017-Oct-16 19:51 UTC. Time now 2017-Oct-18 09:34 UTC.
Position N 48°56' W 125°32'.

Length 29 m; draft 4 m.

Type: Fishing. MMSI: 316003514.

Date/timePositionNaut miles runAvg speedWind from/ knotsBaromVisibWave heightAir tempDewpointWater temp
2017-Oct-16 19:51N 48°56' W 125°32'0 0.0
2017-Oct-16 19:31N 48°56' W 125°32'0 0.0
2017-Oct-16 19:00N 48°56' W 125°32'0 0.0
2017-Oct-16 18:31N 48°56' W 125°32'0 0.0
2017-Oct-16 18:00N 48°56' W 125°32'0 0.0
2017-Oct-16 17:31N 48°56' W 125°32'0 0.0
2017-Oct-16 17:00N 48°56' W 125°32'0 0.0
2017-Oct-16 16:30N 48°56' W 125°32'0 0.0
2017-Oct-16 16:00N 48°56' W 125°32'0 0.2
2017-Oct-16 15:30N 48°56' W 125°32'0 0.0
2017-Oct-16 15:01N 48°56' W 125°32'0 0.0
2017-Oct-16 14:00N 48°56' W 125°32'0 0.0
2017-Oct-16 13:30N 48°56' W 125°32'0 0.0
2017-Oct-16 13:00N 48°56' W 125°32'0 0.0
2017-Oct-16 12:31N 48°56' W 125°32'0 0.0
2017-Oct-16 12:01N 48°56' W 125°32'0 0.0
2017-Oct-16 11:30N 48°56' W 125°32'0 0.0
2017-Oct-16 11:01N 48°56' W 125°32'0 0.0
2017-Oct-16 10:30N 48°56' W 125°32'0 0.0
2017-Oct-16 10:01N 48°56' W 125°32'0 0.0
2017-Oct-16 09:31N 48°56' W 125°32'1 2.3
2017-Oct-16 09:01N 48°55' W 125°31'4 7.4
2017-Oct-16 08:30N 48°55' W 125°37'4 8.1
2017-Oct-16 08:00N 48°55' W 125°43'4 8.3
2017-Oct-16 07:31N 48°55' W 125°49'4 8.6
2017-Oct-16 07:00N 48°55' W 125°56'4 8.7
2017-Oct-16 06:30N 48°55' W 126°02'4 8.6
2017-Oct-16 06:00N 48°55' W 126°09'4 8.7
2017-Oct-16 05:30N 48°55' W 126°16'5 8.7
2017-Oct-16 04:53N 48°55' W 126°24'3 8.1
2017-Oct-16 04:29N 48°55' W 126°29'3 3.5
2017-Oct-16 03:37N 48°55' W 126°33'1 2.7
2017-Oct-16 03:08N 48°57' W 126°33'0 1.4
2017-Oct-16 02:49N 48°57' W 126°33'1 0.7
2017-Oct-16 01:17N 48°56' W 126°33'1 1.9
2017-Oct-16 00:59N 48°55' W 126°32'1 2.2
2017-Oct-16 00:29N 48°54' W 126°32'1 2.1
2017-Oct-16 00:00N 48°53' W 126°32'1 2.2
2017-Oct-15 23:29N 48°52' W 126°32'2 2.3
2017-Oct-15 22:48N 48°51' W 126°33'1 2.4
2017-Oct-15 22:30N 48°50' W 126°33'1 2.7
2017-Oct-15 22:00N 48°49' W 126°33'1 1.7
2017-Oct-15 21:24N 48°50' W 126°33'1 2.4
2017-Oct-15 20:59N 48°51' W 126°33'1 2.3
2017-Oct-15 20:29N 48°52' W 126°34'1 1.4
2017-Oct-15 20:00N 48°52' W 126°33'2 2.3
2017-Oct-15 19:18N 48°51' W 126°34'1 2.3
2017-Oct-15 18:59N 48°50' W 126°34'1 2.4
2017-Oct-15 18:28N 48°49' W 126°32'1 2.4
2017-Oct-15 18:01N 48°48' W 126°31'1 1.6
2017-Oct-15 17:30N 48°47' W 126°31'4 7.8
2017-Oct-15 16:58N 48°51' W 126°33'2 3.4
2017-Oct-15 16:20N 48°49' W 126°33'3 8.1
2017-Oct-15 15:58N 48°48' W 126°29'4 8.2
2017-Oct-15 15:30N 48°47' W 126°23'4 8.9
2017-Oct-15 15:01N 48°45' W 126°18'6 5.5
2017-Oct-15 14:01N 48°45' W 126°09'4 7.1
2017-Oct-15 13:31N 48°47' W 126°04'3 6.9
2017-Oct-15 13:01N 48°48' W 125°60'4 7.2
2017-Oct-15 12:31N 48°49' W 125°55'4 7.3
2017-Oct-15 12:01N 48°51' W 125°49'4 7.4
2017-Oct-15 11:30N 48°52' W 125°44'4 7.3
2017-Oct-15 11:01N 48°53' W 125°39'4 7.3
2017-Oct-15 10:31N 48°55' W 125°34'2 3.9
2017-Oct-15 10:01N 48°56' W 125°32'0 0.2
2017-Oct-15 09:31N 48°56' W 125°32'0 0.0
2017-Oct-15 09:01N 48°56' W 125°32'0 0.0
2017-Oct-15 08:30N 48°56' W 125°32'0 0.0
2017-Oct-15 08:01N 48°56' W 125°32'0 0.0
2017-Oct-15 07:31N 48°56' W 125°32'0 0.0
2017-Oct-15 07:01N 48°56' W 125°32'0 0.0
2017-Oct-15 06:30N 48°56' W 125°32'0 0.0
2017-Oct-15 06:01N 48°56' W 125°32'0 0.0
2017-Oct-15 05:31N 48°56' W 125°32'0 0.0
2017-Oct-15 05:01N 48°56' W 125°32'1 3.0
2017-Oct-15 04:31N 48°55' W 125°33'4 7.8
2017-Oct-15 04:01N 48°55' W 125°38'3 6.8
2017-Oct-15 03:31N 48°55' W 125°44'3 6.2
2017-Oct-15 03:01N 48°55' W 125°48'3 6.0
2017-Oct-15 02:31N 48°55' W 125°53'3 6.2
2017-Oct-15 02:00N 48°55' W 125°58'3 6.5
2017-Oct-15 01:28N 48°54' W 126°03'3 7.1
2017-Oct-15 01:01N 48°54' W 126°08'4 7.4
2017-Oct-15 00:30N 48°52' W 126°13'3 6.7
2017-Oct-15 00:00N 48°52' W 126°18'3 6.8
2017-Oct-14 23:31N 48°52' W 126°23'2 4.0
2017-Oct-14 22:59N 48°51' W 126°26'1 1.8
2017-Oct-14 22:30N 48°50' W 126°26'1 1.3
2017-Oct-14 22:00N 48°50' W 126°27'1 1.2
2017-Oct-14 21:30N 48°49' W 126°27'1 1.4
2017-Oct-14 21:00N 48°48' W 126°27'1 1.4
2017-Oct-14 20:30N 48°48' W 126°28'0 0.9
2017-Oct-14 19:58N 48°48' W 126°27'1 2.3
2017-Oct-14 19:28N 48°47' W 126°25'1 2.6
2017-Oct-14 18:59N 48°47' W 126°23'1 2.6
2017-Oct-14 18:30N 48°47' W 126°22'1 2.6
2017-Oct-14 18:01N 48°46' W 126°20'1 1.2
2017-Oct-14 17:30N 48°46' W 126°19'3 5.7
2017-Oct-14 16:59N 48°47' W 126°23'4 6.9
2017-Oct-14 16:27N 48°47' W 126°29'4 7.3
2017-Oct-14 15:57N 48°50' W 126°32'3 7.1
2017-Oct-14 15:30N 48°53' W 126°32'1 1.1
2017-Oct-14 14:55N 48°53' W 126°33'2 4.7
2017-Oct-14 14:30N 48°52' W 126°30'4 7.7
2017-Oct-14 14:00N 48°52' W 126°24'4 7.6
2017-Oct-14 13:31N 48°52' W 126°19'4 7.6
2017-Oct-14 13:00N 48°52' W 126°13'4 7.5
2017-Oct-14 12:30N 48°53' W 126°07'4 7.5
2017-Oct-14 12:01N 48°53' W 126°02'4 7.8
2017-Oct-14 11:31N 48°54' W 125°56'4 7.7
2017-Oct-14 11:01N 48°54' W 125°50'4 7.7
2017-Oct-14 10:30N 48°55' W 125°44'4 7.8
2017-Oct-14 10:01N 48°55' W 125°38'4 8.1
2017-Oct-14 09:31N 48°55' W 125°32'1 2.7
2017-Oct-14 09:01N 48°56' W 125°32'0 0.0
2017-Oct-14 08:31N 48°56' W 125°32'0 0.0
2017-Oct-14 08:01N 48°56' W 125°32'0 0.0
2017-Oct-14 07:31N 48°56' W 125°32'0 0.0
2017-Oct-14 07:01N 48°56' W 125°32'0 0.0
2017-Oct-14 06:31N 48°56' W 125°32'0 0.0
2017-Oct-14 06:01N 48°56' W 125°32'0 0.0
2017-Oct-14 05:30N 48°56' W 125°32'0 0.0
2017-Oct-14 05:01N 48°56' W 125°32'0 0.0
2017-Oct-14 04:30N 48°56' W 125°32'  

Dump ship's entire track history